Terminal Aerodrome Forecast
Issued by NWS

Home | Current Version | Previous Version | Text Only | Print | Product List | Glossary On
Versions: 1 2 3 4 5 6 7 8 9 10 11 12 13 14 15 16 17
000
FTUS41 KRNK 230547 CCA
TAFLWB
TAF COR
KLWB 230547Z 2306/2406 24005KT P6SM VCSH SCT015 BKN035
      TEMPO 2308/2312 SCT007 BKN015
     FM231500 30006KT P6SM BKN035
     FM231700 32006KT P6SM SCT040
     FM240200 VRB03KT P6SM SKC=

USA.gov is the U.S. government's official web portal to all federal, state and local government web resources and services.